Etusivu
METAR-TAF:

METAR-TAF

Lentoasemat :

Rexburg-Madison County Airport

Rexburg, Idaho, Yhdysvallat

Leveyspiiri: 43-49-54N, Pituuspiiri: 111-48-22W, korkeus merenpinnasta: 1481 m

Tämänhetkinen sää

Tämä raportti tehtiin 36 minuuttia sitten, kello 22.53 UTC
Tuuli 4 kn idästä
Lämpötila 7°C
Kosteus 14%
Ilmanpaine 1029 hPa
Näkyvyys: 16.1 km
selkeää

METAR: KRXE 112253Z AUTO 09004KT 10SM CLR 07/M19 A3040 RMK AO2 SLP311 T00671189

Aika: 16:29 (23:29 UTC)


TAF: puuttuu

Säähavainnot ja -ennusteet yli 4000 lentoasemalta (METAR- ja TAF-raportit).

Käytössä olevat sääasemat on merkitty karttaan keltaisilla ja punaisilla pisteillä.

Aseta hiiri pisteen päälle nähdäksesi sääaseman nimen.

Klikkaa sitten nähdäksesi säähavainnot ja -ennusteet.

Kartan vaihtaminen: klikkaa mustalla rastilla varustettuja vihreitä pisteitä, niin voit zoomata sisään; viivalla varustettua vihreää pistettä, niin voit zoomata ulos tai vihreitä nuolia, niin pääset viereisille kartoille.


METAR-TAF: